Time;durP1;ratioP1;P1;durP2;ratioP2;P2;SDS_P1;SDS_P2;PMS_P1;PMS_P2;Temp;Humidity;BMP_temperature;BMP_pressure;BME280_temperature;BME280_humidity;BME280_pressure;Samples;Min_cycle;Max_cycle;Signal;HPM_P1;HPM_P2
2023/08/14 00:01:41;;;;;;;;;;;22.70;75.40;;;;;;5033118;28;19979;-53
2023/08/14 00:04:07;;;;;;;;;;;22.70;75.50;;;;;;5033224;28;19962;-53
2023/08/14 00:06:32;;;;;;;;;;;22.60;75.30;;;;;;5047708;28;19920;-55
2023/08/14 00:08:57;;;;;;;;;;;22.60;75.30;;;;;;5033263;28;20426;-54
2023/08/14 00:11:23;;;;;;;;;;;22.60;75.30;;;;;;5033810;28;20367;-53
2023/08/14 00:13:49;;;;;;;;;;;22.60;75.30;;;;;;5037271;28;20288;-53
2023/08/14 00:16:14;;;;;;;;;;;22.60;75.10;;;;;;5033620;28;19913;-53
2023/08/14 00:18:40;;;;;;;;;;;22.60;75.30;;;;;;5040531;28;19921;-53
2023/08/14 00:21:05;;;;;;;;;;;22.60;75.30;;;;;;5046950;28;19975;-53
2023/08/14 00:23:31;;;;;;;;;;;22.60;75.40;;;;;;5042345;28;19920;-54
2023/08/14 00:25:56;;;;;;;;;;;22.60;75.50;;;;;;5038859;28;19921;-54
2023/08/14 00:28:22;;;;;;;;;;;22.60;75.70;;;;;;5038455;28;20015;-53
2023/08/14 00:30:47;;;;;;;;;;;22.60;75.80;;;;;;5035139;28;19913;-53
2023/08/14 00:33:12;;;;;;;;;;;22.50;75.70;;;;;;5032212;28;19920;-53
2023/08/14 00:35:38;;;;;;;;;;;22.50;75.50;;;;;;5041903;28;19920;-53
2023/08/14 00:38:03;;;;;;;;;;;22.60;75.70;;;;;;5038244;28;19952;-53
2023/08/14 00:40:29;;;;;;;;;;;22.60;75.60;;;;;;5047018;28;19920;-54
2023/08/14 00:42:54;;;;;;;;;;;22.50;75.70;;;;;;5030187;28;19921;-53
2023/08/14 00:45:20;;;;;;;;;;;22.50;75.70;;;;;;5031634;28;19975;-53
2023/08/14 00:47:45;;;;;;;;;;;22.50;75.80;;;;;;5047859;28;19946;-53
2023/08/14 00:50:11;;;;;;;;;;;22.50;75.70;;;;;;5033288;28;19967;-53
2023/08/14 00:52:37;;;;;;;;;;;22.50;75.80;;;;;;5033960;28;19909;-53
2023/08/14 00:55:03;;;;;;;;;;;22.50;76.00;;;;;;5037024;28;20388;-54
2023/08/14 00:57:31;;;;;;;;;;;22.50;76.10;;;;;;5030800;28;19913;-53
2023/08/14 00:59:57;;;;;;;;;;;22.50;76.10;;;;;;5019441;28;20011;-53
2023/08/14 01:02:23;;;;;;;;;;;22.50;76.20;;;;;;5045819;28;20016;-53
2023/08/14 01:04:49;;;;;;;;;;;22.40;76.10;;;;;;5031428;28;20388;-53
2023/08/14 01:07:14;;;;;;;;;;;22.40;76.10;;;;;;5038018;28;19968;-53
2023/08/14 01:09:40;;;;;;;;;;;22.40;76.20;;;;;;5030387;28;19924;-53
2023/08/14 01:12:10;;;;;;;;;;;22.40;76.20;;;;;;5037692;28;19919;-53
2023/08/14 01:14:36;;;;;;;;;;;22.40;76.10;;;;;;5026281;28;19913;-53
2023/08/14 01:17:03;;;;;;;;;;;22.40;76.10;;;;;;5035727;28;19909;-54
2023/08/14 01:19:32;;;;;;;;;;;22.50;76.10;;;;;;5031936;28;20334;-53
2023/08/14 01:22:03;;;;;;;;;;;22.50;76.10;;;;;;5049335;28;20078;-53
2023/08/14 01:24:47;;;;;;;;;;;22.40;75.90;;;;;;5038443;28;19936;-53
2023/08/14 01:27:13;;;;;;;;;;;22.40;75.90;;;;;;5029368;28;20365;-53
2023/08/14 01:29:38;;;;;;;;;;;22.40;76.00;;;;;;5029890;28;19924;-53
2023/08/14 01:32:04;;;;;;;;;;;22.40;76.10;;;;;;5031035;28;19924;-53
2023/08/14 01:34:29;;;;;;;;;;;22.40;76.10;;;;;;5038742;28;19966;-53
2023/08/14 01:36:58;;;;;;;;;;;22.40;76.00;;;;;;5045946;28;19913;-53
2023/08/14 01:39:24;;;;;;;;;;;22.50;76.00;;;;;;5030596;28;19917;-54
2023/08/14 01:41:49;;;;;;;;;;;22.40;75.90;;;;;;5014260;28;19913;-53
2023/08/14 01:44:15;;;;;;;;;;;22.40;76.00;;;;;;5030588;28;19991;-53
2023/08/14 01:46:43;;;;;;;;;;;22.40;76.10;;;;;;5034421;28;19927;-54
2023/08/14 01:49:10;;;;;;;;;;;22.40;76.00;;;;;;5018362;28;19952;-53
2023/08/14 01:51:35;;;;;;;;;;;22.40;76.00;;;;;;5014227;28;19920;-53
2023/08/14 01:54:00;;;;;;;;;;;22.40;76.00;;;;;;5011948;28;19913;-53
2023/08/14 01:56:26;;;;;;;;;;;22.40;76.10;;;;;;5009556;28;19928;-53
2023/08/14 01:58:51;;;;;;;;;;;22.30;76.00;;;;;;5010892;28;19928;-53
2023/08/14 02:01:17;;;;;;;;;;;22.30;76.20;;;;;;5025717;28;19913;-53
2023/08/14 02:03:42;;;;;;;;;;;22.30;76.90;;;;;;5026953;28;19925;-53
2023/08/14 02:06:08;;;;;;;;;;;22.30;76.20;;;;;;5013136;28;19928;-54
2023/08/14 02:08:33;;;;;;;;;;;22.30;76.20;;;;;;5013257;28;19963;-53
2023/08/14 02:10:58;;;;;;;;;;;22.30;76.20;;;;;;5008960;28;19917;-54
2023/08/14 02:13:24;;;;;;;;;;;22.30;76.10;;;;;;5009466;28;19917;-53
2023/08/14 02:15:49;;;;;;;;;;;22.30;76.10;;;;;;5012346;28;19914;-53
2023/08/14 02:18:15;;;;;;;;;;;22.20;75.80;;;;;;5013602;28;19992;-53
2023/08/14 02:20:47;;;;;;;;;;;22.30;76.00;;;;;;5014657;28;20373;-53
2023/08/14 02:23:13;;;;;;;;;;;22.30;76.00;;;;;;5009810;28;19944;-53
2023/08/14 02:25:39;;;;;;;;;;;22.30;76.00;;;;;;5011714;28;20285;-53
2023/08/14 02:28:04;;;;;;;;;;;22.30;75.90;;;;;;5012193;28;19956;-54
2023/08/14 02:30:30;;;;;;;;;;;22.30;75.90;;;;;;5020265;28;19964;-53
2023/08/14 02:32:56;;;;;;;;;;;22.30;75.80;;;;;;5028301;28;19913;-54
2023/08/14 02:35:22;;;;;;;;;;;22.30;75.90;;;;;;5013511;28;20008;-53
2023/08/14 02:37:47;;;;;;;;;;;22.30;75.90;;;;;;5009438;28;20012;-53
2023/08/14 02:40:13;;;;;;;;;;;22.20;75.70;;;;;;5017060;28;19913;-53
2023/08/14 02:42:38;;;;;;;;;;;22.30;75.80;;;;;;5030747;28;19925;-53
2023/08/14 02:45:04;;;;;;;;;;;22.30;75.70;;;;;;5015619;28;19917;-53
2023/08/14 02:47:29;;;;;;;;;;;22.30;75.70;;;;;;5010964;28;20326;-53
2023/08/14 02:49:55;;;;;;;;;;;22.30;75.70;;;;;;5026451;28;20004;-55
2023/08/14 02:52:20;;;;;;;;;;;22.20;75.60;;;;;;5008710;28;19924;-53
2023/08/14 02:54:46;;;;;;;;;;;22.20;75.70;;;;;;5011241;28;19920;-53
2023/08/14 02:57:11;;;;;;;;;;;22.10;75.80;;;;;;5026075;28;19913;-53
2023/08/14 02:59:37;;;;;;;;;;;22.10;75.90;;;;;;5019934;28;20396;-53
2023/08/14 03:02:02;;;;;;;;;;;22.10;75.80;;;;;;5012407;28;19909;-53
2023/08/14 03:04:29;;;;;;;;;;;22.10;76.00;;;;;;5011042;28;19972;-53
2023/08/14 03:06:55;;;;;;;;;;;22.10;75.90;;;;;;5010559;28;20346;-53
2023/08/14 03:09:20;;;;;;;;;;;22.10;75.90;;;;;;5011248;28;19956;-53
2023/08/14 03:11:46;;;;;;;;;;;22.10;75.70;;;;;;5027276;28;19914;-53
2023/08/14 03:14:11;;;;;;;;;;;22.10;75.70;;;;;;5023838;28;19915;-53
2023/08/14 03:16:37;;;;;;;;;;;22.20;75.80;;;;;;5023352;28;19968;-53
2023/08/14 03:19:02;;;;;;;;;;;22.20;75.60;;;;;;5017091;28;19910;-53
2023/08/14 03:21:28;;;;;;;;;;;22.10;75.50;;;;;;5010597;28;19917;-53
2023/08/14 03:23:53;;;;;;;;;;;22.10;75.50;;;;;;5012187;28;19933;-53
2023/08/14 03:26:19;;;;;;;;;;;22.10;75.50;;;;;;5019768;28;20332;-53
2023/08/14 03:28:44;;;;;;;;;;;22.10;75.60;;;;;;5018453;28;19928;-53
2023/08/14 03:31:09;;;;;;;;;;;22.10;75.60;;;;;;5017910;28;20445;-53
2023/08/14 03:33:35;;;;;;;;;;;22.20;75.70;;;;;;5028516;28;20289;-53
2023/08/14 03:36:01;;;;;;;;;;;22.10;75.30;;;;;;5025338;28;19913;-54
2023/08/14 03:38:26;;;;;;;;;;;22.10;75.50;;;;;;5016869;28;19913;-53
2023/08/14 03:40:51;;;;;;;;;;;22.10;75.70;;;;;;5018388;28;19922;-53
2023/08/14 03:43:17;;;;;;;;;;;22.10;75.70;;;;;;5021082;28;19921;-53
2023/08/14 03:45:42;;;;;;;;;;;22.10;75.50;;;;;;5025999;28;19921;-53
2023/08/14 03:48:08;;;;;;;;;;;22.10;75.60;;;;;;5028447;28;19924;-53
2023/08/14 03:50:33;;;;;;;;;;;22.10;75.60;;;;;;5031691;28;19924;-53
2023/08/14 03:52:59;;;;;;;;;;;22.10;75.60;;;;;;5042804;28;20332;-53
2023/08/14 03:55:24;;;;;;;;;;;22.00;75.60;;;;;;5034317;28;19982;-54
2023/08/14 03:57:49;;;;;;;;;;;22.00;75.70;;;;;;5038692;28;19913;-53
2023/08/14 04:00:15;;;;;;;;;;;22.00;75.70;;;;;;5046840;28;19912;-53
2023/08/14 04:02:40;;;;;;;;;;;22.00;75.80;;;;;;5037380;28;19917;-53
2023/08/14 04:05:06;;;;;;;;;;;21.90;75.80;;;;;;5039874;28;20292;-53
2023/08/14 04:07:31;;;;;;;;;;;21.90;75.90;;;;;;5034139;28;20352;-53
2023/08/14 04:09:57;;;;;;;;;;;21.90;75.90;;;;;;5034320;28;20341;-53
2023/08/14 04:12:22;;;;;;;;;;;21.90;76.00;;;;;;5033551;28;19913;-53
2023/08/14 04:14:48;;;;;;;;;;;21.90;75.90;;;;;;5047323;28;19917;-54
2023/08/14 04:17:14;;;;;;;;;;;21.90;76.00;;;;;;5045663;28;19917;-53
2023/08/14 04:19:39;;;;;;;;;;;21.90;75.90;;;;;;5035569;28;20007;-53
2023/08/14 04:22:05;;;;;;;;;;;21.90;76.00;;;;;;5033945;28;19939;-53
2023/08/14 04:24:30;;;;;;;;;;;21.90;75.80;;;;;;5032097;28;19924;-53
2023/08/14 04:26:56;;;;;;;;;;;21.90;76.60;;;;;;5038503;28;19913;-53
2023/08/14 04:29:21;;;;;;;;;;;21.90;75.70;;;;;;5046816;28;19959;-53
2023/08/14 04:31:47;;;;;;;;;;;21.90;75.80;;;;;;5035746;28;19913;-53
2023/08/14 04:34:12;;;;;;;;;;;22.00;75.80;;;;;;5033756;28;19913;-54
2023/08/14 04:36:38;;;;;;;;;;;22.00;75.80;;;;;;5054330;28;19909;-53
2023/08/14 04:39:07;;;;;;;;;;;22.00;75.60;;;;;;5036394;28;19940;-54
2023/08/14 04:41:33;;;;;;;;;;;22.00;75.60;;;;;;5036108;28;19913;-53
2023/08/14 04:43:58;;;;;;;;;;;22.00;75.50;;;;;;5039898;28;20031;-53
2023/08/14 04:46:42;;;;;;;;;;;22.00;75.60;;;;;;5033802;28;20353;-53
2023/08/14 04:49:07;;;;;;;;;;;22.00;75.60;;;;;;5031585;28;19929;-53
2023/08/14 04:51:33;;;;;;;;;;;22.00;75.60;;;;;;5053450;28;20651;-53
2023/08/14 04:53:59;;;;;;;;;;;21.90;75.60;;;;;;5024691;28;19917;-53
2023/08/14 04:56:24;;;;;;;;;;;21.90;75.50;;;;;;5028526;28;19945;-53
2023/08/14 04:58:49;;;;;;;;;;;21.90;75.60;;;;;;5046445;28;20719;-53
2023/08/14 05:01:15;;;;;;;;;;;21.90;75.60;;;;;;5043987;28;19917;-53
2023/08/14 05:03:40;;;;;;;;;;;21.90;75.60;;;;;;5029578;28;20019;-53
2023/08/14 05:06:06;;;;;;;;;;;21.90;75.60;;;;;;5032624;28;19917;-53
2023/08/14 05:08:31;;;;;;;;;;;21.90;75.70;;;;;;5032383;28;20359;-53
2023/08/14 05:10:57;;;;;;;;;;;21.90;75.80;;;;;;5037684;28;19920;-54
2023/08/14 05:13:22;;;;;;;;;;;21.90;76.00;;;;;;5050207;28;20392;-54
2023/08/14 05:15:48;;;;;;;;;;;21.80;75.70;;;;;;5047902;28;19917;-53
2023/08/14 05:18:14;;;;;;;;;;;21.90;75.90;;;;;;5032584;28;19917;-54
2023/08/14 05:20:46;;;;;;;;;;;21.90;75.90;;;;;;5030026;28;19959;-53
2023/08/14 05:23:11;;;;;;;;;;;21.90;75.90;;;;;;5032217;28;20372;-53
2023/08/14 05:25:37;;;;;;;;;;;21.90;75.60;;;;;;5031305;28;19920;-53
2023/08/14 05:28:03;;;;;;;;;;;21.90;75.70;;;;;;5042907;28;19912;-53
2023/08/14 05:30:28;;;;;;;;;;;22.00;75.70;;;;;;5046313;28;20484;-53
2023/08/14 05:32:54;;;;;;;;;;;21.90;75.60;;;;;;5030596;28;19992;-54
2023/08/14 05:35:23;;;;;;;;;;;21.90;75.80;;;;;;5033511;28;19935;-54
2023/08/14 05:37:52;;;;;;;;;;;21.90;75.60;;;;;;5046026;28;20000;-53
2023/08/14 05:40:19;;;;;;;;;;;22.00;75.70;;;;;;5031588;28;19920;-54
2023/08/14 05:42:48;;;;;;;;;;;22.00;75.70;;;;;;5032315;28;20372;-53
2023/08/14 05:45:13;;;;;;;;;;;21.90;75.90;;;;;;5039393;28;19921;-53
2023/08/14 05:47:39;;;;;;;;;;;21.90;76.00;;;;;;5028881;28;19913;-53
2023/08/14 05:50:04;;;;;;;;;;;21.90;76.10;;;;;;5039077;28;19921;-53
2023/08/14 05:52:30;;;;;;;;;;;21.90;76.20;;;;;;5041460;28;20041;-53
2023/08/14 05:54:55;;;;;;;;;;;21.80;76.20;;;;;;5037299;28;19913;-53
2023/08/14 05:57:21;;;;;;;;;;;21.80;76.40;;;;;;5041230;28;20021;-54
2023/08/14 05:59:46;;;;;;;;;;;21.80;76.70;;;;;;5041172;28;19921;-53
2023/08/14 06:02:12;;;;;;;;;;;21.80;76.80;;;;;;5039000;28;19924;-53
2023/08/14 06:04:37;;;;;;;;;;;21.80;76.90;;;;;;5047928;28;20443;-54
2023/08/14 06:07:03;;;;;;;;;;;21.80;76.70;;;;;;5030384;28;20292;-53
2023/08/14 06:09:28;;;;;;;;;;;21.80;76.50;;;;;;5030844;28;20286;-54
2023/08/14 06:11:54;;;;;;;;;;;21.90;76.70;;;;;;5030705;28;19920;-53
2023/08/14 06:14:19;;;;;;;;;;;21.90;76.50;;;;;;5029940;28;19913;-53
2023/08/14 06:16:45;;;;;;;;;;;21.90;76.60;;;;;;5032250;28;20007;-53
2023/08/14 06:19:10;;;;;;;;;;;21.90;76.50;;;;;;5041425;28;20404;-53
2023/08/14 06:21:35;;;;;;;;;;;21.90;76.40;;;;;;5031772;28;20399;-53
2023/08/14 06:24:01;;;;;;;;;;;21.90;76.40;;;;;;5030981;28;19928;-53
2023/08/14 06:26:26;;;;;;;;;;;21.90;76.20;;;;;;5022601;28;19951;-54
2023/08/14 06:28:52;;;;;;;;;;;22.00;76.50;;;;;;5029724;28;19913;-53
2023/08/14 06:31:18;;;;;;;;;;;22.00;76.40;;;;;;5012497;28;19996;-54
2023/08/14 06:33:44;;;;;;;;;;;22.00;76.60;;;;;;5033570;28;19959;-53
2023/08/14 06:36:10;;;;;;;;;;;21.90;76.70;;;;;;5019682;28;19921;-54
2023/08/14 06:38:35;;;;;;;;;;;21.90;76.60;;;;;;5024713;28;20393;-53
2023/08/14 06:41:01;;;;;;;;;;;22.00;76.70;;;;;;5026369;28;19917;-53
2023/08/14 06:43:26;;;;;;;;;;;22.00;76.90;;;;;;5033165;28;19925;-53
2023/08/14 06:45:52;;;;;;;;;;;22.00;76.90;;;;;;5033173;28;20014;-54
2023/08/14 06:48:18;;;;;;;;;;;22.00;77.10;;;;;;5041924;28;19986;-53
2023/08/14 06:50:43;;;;;;;;;;;22.00;77.20;;;;;;5036185;28;19917;-54
2023/08/14 06:53:09;;;;;;;;;;;22.00;77.40;;;;;;5029838;28;19925;-53
2023/08/14 06:55:35;;;;;;;;;;;22.00;77.60;;;;;;5029713;28;19932;-53
2023/08/14 06:58:00;;;;;;;;;;;22.00;77.30;;;;;;5039595;28;19923;-53
2023/08/14 07:00:26;;;;;;;;;;;22.00;77.40;;;;;;5030290;28;19927;-54
2023/08/14 07:02:51;;;;;;;;;;;22.00;77.70;;;;;;5037306;28;19924;-53
2023/08/14 07:05:17;;;;;;;;;;;22.00;77.70;;;;;;5034836;28;19921;-53
2023/08/14 07:07:42;;;;;;;;;;;22.10;77.50;;;;;;5027461;28;19920;-54
2023/08/14 07:10:08;;;;;;;;;;;22.10;77.70;;;;;;5034273;28;20299;-54
2023/08/14 07:12:33;;;;;;;;;;;22.10;77.30;;;;;;5036762;28;19921;-54
2023/08/14 07:15:00;;;;;;;;;;;22.10;77.40;;;;;;5029903;28;19917;-54
2023/08/14 07:17:26;;;;;;;;;;;22.20;77.30;;;;;;5038602;28;19917;-54
2023/08/14 07:19:51;;;;;;;;;;;22.20;77.30;;;;;;5032659;28;19917;-53
2023/08/14 07:22:17;;;;;;;;;;;22.10;77.60;;;;;;5017798;28;19913;-54
2023/08/14 07:24:43;;;;;;;;;;;22.10;77.60;;;;;;5033706;28;19918;-54
2023/08/14 07:27:09;;;;;;;;;;;22.10;77.70;;;;;;5031897;28;19924;-53
2023/08/14 07:29:34;;;;;;;;;;;22.10;77.50;;;;;;5033368;28;20288;-55
2023/08/14 07:32:00;;;;;;;;;;;22.20;77.70;;;;;;5046352;28;19959;-53
2023/08/14 07:34:25;;;;;;;;;;;22.20;77.80;;;;;;5033963;28;19951;-54
2023/08/14 07:36:51;;;;;;;;;;;22.20;77.60;;;;;;5037250;28;19964;-54
2023/08/14 07:39:16;;;;;;;;;;;22.20;77.40;;;;;;5023799;28;19999;-53
2023/08/14 07:41:42;;;;;;;;;;;22.20;77.30;;;;;;5046651;28;19913;-54
2023/08/14 07:44:07;;;;;;;;;;;22.30;77.30;;;;;;5035590;28;19925;-53
2023/08/14 07:46:32;;;;;;;;;;;22.30;77.00;;;;;;5038304;28;19913;-53
2023/08/14 07:48:58;;;;;;;;;;;22.30;76.70;;;;;;5041341;28;19968;-54
2023/08/14 07:51:23;;;;;;;;;;;22.30;76.70;;;;;;5034316;28;20354;-55
2023/08/14 07:53:49;;;;;;;;;;;22.30;76.60;;;;;;5033400;28;19917;-54
2023/08/14 07:56:14;;;;;;;;;;;22.30;76.50;;;;;;5034519;28;19963;-54
2023/08/14 07:58:41;;;;;;;;;;;22.30;77.20;;;;;;5033689;28;19920;-54
2023/08/14 08:01:07;;;;;;;;;;;22.40;76.70;;;;;;5034317;28;19909;-53
2023/08/14 08:03:32;;;;;;;;;;;22.40;76.50;;;;;;5035515;28;19931;-53
2023/08/14 08:05:58;;;;;;;;;;;22.30;76.40;;;;;;5030827;28;19956;-54
2023/08/14 08:08:23;;;;;;;;;;;22.30;76.50;;;;;;5028388;28;19920;-54
2023/08/14 08:10:49;;;;;;;;;;;22.30;76.30;;;;;;5027683;28;19913;-54
2023/08/14 08:13:14;;;;;;;;;;;22.30;76.50;;;;;;5033683;28;19920;-53
2023/08/14 08:15:39;;;;;;;;;;;22.30;76.70;;;;;;5028628;28;19923;-55
2023/08/14 08:18:05;;;;;;;;;;;22.30;76.90;;;;;;5032986;28;19921;-54
2023/08/14 08:20:30;;;;;;;;;;;22.30;77.10;;;;;;5033226;28;19929;-54
2023/08/14 08:22:56;;;;;;;;;;;22.30;77.10;;;;;;5030581;28;19960;-54
2023/08/14 08:25:21;;;;;;;;;;;22.40;77.30;;;;;;5031323;28;19920;-54
2023/08/14 08:27:47;;;;;;;;;;;22.40;77.40;;;;;;5033834;28;19909;-55
2023/08/14 08:30:12;;;;;;;;;;;22.40;77.60;;;;;;5029780;28;19948;-54
2023/08/14 08:32:38;;;;;;;;;;;22.40;77.70;;;;;;5029371;28;20492;-54
2023/08/14 08:35:03;;;;;;;;;;;22.40;78.00;;;;;;5033783;28;19956;-54
2023/08/14 08:37:29;;;;;;;;;;;22.30;78.10;;;;;;5032291;28;19917;-55
2023/08/14 08:39:54;;;;;;;;;;;22.40;78.40;;;;;;5030989;28;19913;-54
2023/08/14 08:42:20;;;;;;;;;;;22.40;78.20;;;;;;5033556;28;19916;-54
2023/08/14 08:44:45;;;;;;;;;;;22.40;78.40;;;;;;5032819;28;19913;-53
2023/08/14 08:47:13;;;;;;;;;;;22.40;78.40;;;;;;5032874;28;20304;-54
2023/08/14 08:49:39;;;;;;;;;;;22.50;79.10;;;;;;5032309;28;20024;-53
2023/08/14 08:52:05;;;;;;;;;;;22.50;77.90;;;;;;5031051;28;19916;-53
2023/08/14 08:54:30;;;;;;;;;;;22.50;78.00;;;;;;5013003;28;20303;-54
2023/08/14 08:56:56;;;;;;;;;;;22.60;78.00;;;;;;5030813;28;19935;-54
2023/08/14 08:59:22;;;;;;;;;;;22.60;78.40;;;;;;5032446;28;20016;-54
2023/08/14 09:01:47;;;;;;;;;;;22.60;78.40;;;;;;5032829;28;19939;-55
2023/08/14 09:04:13;;;;;;;;;;;22.60;78.60;;;;;;5032887;28;20293;-55
2023/08/14 09:06:39;;;;;;;;;;;22.60;78.60;;;;;;5031992;28;19924;-54
2023/08/14 09:09:04;;;;;;;;;;;22.60;78.40;;;;;;5029396;28;19913;-55
2023/08/14 09:11:29;;;;;;;;;;;22.70;79.00;;;;;;5017550;28;19913;-55
2023/08/14 09:13:55;;;;;;;;;;;22.70;78.90;;;;;;5032203;28;19909;-54
2023/08/14 09:16:20;;;;;;;;;;;22.70;78.90;;;;;;5032950;28;19913;-53
2023/08/14 09:18:46;;;;;;;;;;;22.80;78.80;;;;;;5032835;28;19919;-54
2023/08/14 09:21:12;;;;;;;;;;;22.80;78.80;;;;;;5031958;28;19923;-54
2023/08/14 09:23:40;;;;;;;;;;;22.90;78.50;;;;;;5029159;28;19921;-54
2023/08/14 09:26:05;;;;;;;;;;;22.90;78.40;;;;;;5033604;28;20020;-54
2023/08/14 09:28:31;;;;;;;;;;;22.90;78.40;;;;;;5029730;28;19928;-54
2023/08/14 09:31:07;;;;;;;;;;;22.90;77.90;;;;;;5023846;28;19949;-54
2023/08/14 09:33:32;;;;;;;;;;;23.00;78.20;;;;;;5027293;28;19925;-54
2023/08/14 09:35:58;;;;;;;;;;;23.10;77.80;;;;;;5030486;28;19913;-54
2023/08/14 09:38:24;;;;;;;;;;;23.10;77.30;;;;;;5030827;28;19952;-55
2023/08/14 09:40:54;;;;;;;;;;;23.20;76.70;;;;;;5032139;28;20259;-54
2023/08/14 09:43:19;;;;;;;;;;;23.20;76.70;;;;;;5029131;28;19913;-54
2023/08/14 09:45:46;;;;;;;;;;;23.10;76.60;;;;;;5029465;28;19970;-54
2023/08/14 09:48:11;;;;;;;;;;;23.10;76.80;;;;;;5035537;28;19996;-53
2023/08/14 09:50:37;;;;;;;;;;;23.10;76.60;;;;;;5040698;28;20405;-55
2023/08/14 09:53:02;;;;;;;;;;;23.10;75.90;;;;;;5029489;28;19913;-53
2023/08/14 09:55:28;;;;;;;;;;;23.10;76.00;;;;;;5023480;28;19960;-54
2023/08/14 09:57:54;;;;;;;;;;;23.10;76.20;;;;;;5031382;28;19917;-54
2023/08/14 10:00:19;;;;;;;;;;;23.10;76.40;;;;;;5029250;28;19935;-55
2023/08/14 10:02:46;;;;;;;;;;;23.10;76.60;;;;;;5014209;28;19982;-58
2023/08/14 10:05:11;;;;;;;;;;;23.20;76.40;;;;;;5030921;28;20368;-54
2023/08/14 10:07:38;;;;;;;;;;;23.20;76.20;;;;;;5025480;28;19913;-54
2023/08/14 10:10:04;;;;;;;;;;;23.20;75.50;;;;;;5031534;28;20024;-54
2023/08/14 10:12:32;;;;;;;;;;;23.20;75.10;;;;;;5030046;28;20003;-54
2023/08/14 10:15:10;;;;;;;;;;;23.10;74.60;;;;;;5027184;28;19925;-54
2023/08/14 10:17:49;;;;;;;;;;;23.10;74.40;;;;;;5030232;28;20245;-55
2023/08/14 10:20:15;;;;;;;;;;;23.10;74.90;;;;;;5014217;28;19913;-54
2023/08/14 10:22:40;;;;;;;;;;;23.10;74.90;;;;;;5016424;28;19918;-53
2023/08/14 10:25:06;;;;;;;;;;;23.10;74.90;;;;;;5028092;28;20007;-54
2023/08/14 10:27:31;;;;;;;;;;;23.10;74.60;;;;;;5028516;28;20007;-54
2023/08/14 10:29:57;;;;;;;;;;;23.10;74.70;;;;;;5027233;28;19913;-54
2023/08/14 10:32:22;;;;;;;;;;;23.10;74.70;;;;;;5018598;28;20373;-54
2023/08/14 10:34:48;;;;;;;;;;;23.10;74.60;;;;;;5032505;28;20366;-54
2023/08/14 10:37:26;;;;;;;;;;;23.20;75.00;;;;;;5027136;28;20551;-54
2023/08/14 10:39:51;;;;;;;;;;;23.30;74.70;;;;;;5028258;28;20347;-56
2023/08/14 10:42:17;;;;;;;;;;;23.50;74.70;;;;;;5030203;28;19913;-55
2023/08/14 10:44:43;;;;;;;;;;;23.60;74.40;;;;;;5029529;28;20408;-56
2023/08/14 10:47:10;;;;;;;;;;;23.70;74.10;;;;;;5031532;28;20440;-55
2023/08/14 10:49:41;;;;;;;;;;;23.70;74.00;;;;;;5029361;28;19966;-54
2023/08/14 10:52:07;;;;;;;;;;;23.60;74.30;;;;;;5014361;28;19921;-54
2023/08/14 10:54:36;;;;;;;;;;;23.60;74.60;;;;;;5012223;28;19922;-55
2023/08/14 10:57:01;;;;;;;;;;;23.50;74.70;;;;;;5031248;28;19992;-55
2023/08/14 10:59:28;;;;;;;;;;;23.50;74.70;;;;;;5022929;28;20046;-56
2023/08/14 11:02:04;;;;;;;;;;;23.50;73.80;;;;;;5030158;28;19920;-56
2023/08/14 11:04:30;;;;;;;;;;;23.50;73.90;;;;;;5027213;28;19921;-56
2023/08/14 11:06:58;;;;;;;;;;;23.60;73.80;;;;;;5027621;28;19928;-55
2023/08/14 11:09:27;;;;;;;;;;;23.70;72.90;;;;;;5028857;28;19924;-56
2023/08/14 11:11:54;;;;;;;;;;;23.70;71.90;;;;;;5027792;28;20365;-55
2023/08/14 11:14:19;;;;;;;;;;;23.70;70.30;;;;;;5010963;28;20029;-55
2023/08/14 11:16:49;;;;;;;;;;;23.70;70.30;;;;;;5031764;28;19952;-56
2023/08/14 11:19:14;;;;;;;;;;;23.80;70.40;;;;;;5026470;28;19924;-55
2023/08/14 11:21:40;;;;;;;;;;;23.90;70.50;;;;;;5025719;28;19929;-55
2023/08/14 11:24:11;;;;;;;;;;;24.00;70.60;;;;;;5028732;28;19928;-55
2023/08/14 11:26:36;;;;;;;;;;;24.10;70.40;;;;;;5016819;28;19917;-55
2023/08/14 11:29:02;;;;;;;;;;;24.20;70.80;;;;;;5007033;28;20589;-54
2023/08/14 11:31:27;;;;;;;;;;;24.20;70.90;;;;;;5026762;28;19995;-56
2023/08/14 11:33:53;;;;;;;;;;;24.20;71.30;;;;;;5030003;28;19974;-54
2023/08/14 11:36:18;;;;;;;;;;;24.30;70.90;;;;;;5031116;28;20004;-54
2023/08/14 11:38:44;;;;;;;;;;;24.30;70.10;;;;;;5030004;28;19917;-56
2023/08/14 11:41:09;;;;;;;;;;;24.30;70.20;;;;;;5031023;28;19909;-54
2023/08/14 11:43:38;;;;;;;;;;;24.30;70.80;;;;;;5026340;28;19917;-55
2023/08/14 11:46:03;;;;;;;;;;;24.40;70.90;;;;;;5028390;28;20136;-55
2023/08/14 11:48:29;;;;;;;;;;;24.50;70.90;;;;;;5027064;28;19975;-54
2023/08/14 11:50:54;;;;;;;;;;;24.40;70.80;;;;;;5027111;28;19944;-55
2023/08/14 11:53:20;;;;;;;;;;;24.40;71.00;;;;;;5028332;28;19919;-56
2023/08/14 11:55:45;;;;;;;;;;;24.50;71.10;;;;;;5030463;28;19924;-54
2023/08/14 11:58:11;;;;;;;;;;;24.50;71.10;;;;;;5031685;28;19943;-55
2023/08/14 12:00:37;;;;;;;;;;;24.50;71.10;;;;;;5010241;28;19920;-55
2023/08/14 12:03:02;;;;;;;;;;;24.40;71.00;;;;;;5029980;28;19913;-55
2023/08/14 12:05:28;;;;;;;;;;;24.50;71.40;;;;;;5031366;28;19921;-54
2023/08/14 12:07:53;;;;;;;;;;;24.60;71.50;;;;;;5033602;28;19925;-56
2023/08/14 12:10:19;;;;;;;;;;;24.70;70.00;;;;;;5033858;28;19920;-55
2023/08/14 12:12:45;;;;;;;;;;;24.80;69.90;;;;;;5033085;28;20003;-55
2023/08/14 12:15:10;;;;;;;;;;;24.80;69.70;;;;;;5033603;28;19910;-55
2023/08/14 12:17:37;;;;;;;;;;;24.80;70.00;;;;;;5032227;28;19920;-55
2023/08/14 12:20:06;;;;;;;;;;;24.80;69.90;;;;;;5018839;28;19913;-59
2023/08/14 12:22:31;;;;;;;;;;;24.90;69.60;;;;;;5028777;28;20122;-56
2023/08/14 12:24:57;;;;;;;;;;;24.90;69.40;;;;;;5033423;28;19924;-56
2023/08/14 12:27:26;;;;;;;;;;;24.80;70.20;;;;;;5033805;28;19916;-55
2023/08/14 12:29:52;;;;;;;;;;;25.00;69.50;;;;;;5029018;28;19923;-55
2023/08/14 12:32:18;;;;;;;;;;;25.10;68.00;;;;;;5030496;28;19917;-55
2023/08/14 12:34:43;;;;;;;;;;;25.10;68.60;;;;;;5032343;28;19917;-54
2023/08/14 12:37:14;;;;;;;;;;;25.20;68.00;;;;;;5032881;28;19921;-56
2023/08/14 12:39:39;;;;;;;;;;;25.10;68.80;;;;;;5038949;28;19971;-56
2023/08/14 12:42:05;;;;;;;;;;;25.20;68.70;;;;;;5033411;28;20368;-54
2023/08/14 12:44:30;;;;;;;;;;;25.20;68.40;;;;;;5031548;28;19924;-55
2023/08/14 12:46:56;;;;;;;;;;;25.20;67.30;;;;;;5032705;28;19920;-55
2023/08/14 12:49:21;;;;;;;;;;;25.20;67.70;;;;;;5032813;28;19988;-55
2023/08/14 12:51:47;;;;;;;;;;;25.20;67.80;;;;;;5039879;28;20377;-56
2023/08/14 12:54:16;;;;;;;;;;;25.30;66.90;;;;;;5026460;28;20322;-55
2023/08/14 12:56:41;;;;;;;;;;;25.30;67.10;;;;;;5031916;28;19917;-55
2023/08/14 12:59:07;;;;;;;;;;;25.10;67.80;;;;;;5039304;28;20258;-55
2023/08/14 13:01:33;;;;;;;;;;;25.00;68.10;;;;;;5033349;28;19909;-55
2023/08/14 13:03:58;;;;;;;;;;;24.90;68.40;;;;;;5047406;28;19928;-55
2023/08/14 13:06:24;;;;;;;;;;;24.90;69.20;;;;;;5032851;28;20280;-55
2023/08/14 13:08:49;;;;;;;;;;;24.90;69.20;;;;;;5019210;28;19967;-55
2023/08/14 13:11:15;;;;;;;;;;;24.80;69.20;;;;;;5031929;28;20285;-59
2023/08/14 13:13:40;;;;;;;;;;;25.00;68.40;;;;;;5029218;28;19913;-55
2023/08/14 13:16:06;;;;;;;;;;;25.00;68.10;;;;;;5032134;28;20335;-55
2023/08/14 13:18:32;;;;;;;;;;;25.10;68.00;;;;;;5032707;28;20507;-55
2023/08/14 13:20:57;;;;;;;;;;;25.20;67.60;;;;;;5031192;28;19913;-54
2023/08/14 13:23:23;;;;;;;;;;;25.10;68.70;;;;;;5019112;28;19913;-56
2023/08/14 13:25:48;;;;;;;;;;;25.00;68.80;;;;;;5029243;28;20389;-55
2023/08/14 13:28:14;;;;;;;;;;;25.10;68.50;;;;;;5031315;28;20289;-55
2023/08/14 13:30:39;;;;;;;;;;;25.00;69.10;;;;;;5031393;28;19909;-55
2023/08/14 13:33:05;;;;;;;;;;;25.00;68.50;;;;;;5032612;28;19910;-56
2023/08/14 13:35:30;;;;;;;;;;;25.00;68.80;;;;;;5031202;28;20046;-54
2023/08/14 13:37:56;;;;;;;;;;;25.20;67.60;;;;;;5031477;28;19913;-55
2023/08/14 13:40:21;;;;;;;;;;;25.40;67.10;;;;;;5032071;28;20136;-54
2023/08/14 13:42:47;;;;;;;;;;;25.40;67.20;;;;;;5030145;28;19913;-56
2023/08/14 13:45:12;;;;;;;;;;;25.50;66.60;;;;;;5029170;28;20377;-55
2023/08/14 13:47:38;;;;;;;;;;;25.40;67.50;;;;;;5010651;28;20003;-56
2023/08/14 13:50:03;;;;;;;;;;;25.40;66.80;;;;;;5030986;28;20028;-55
2023/08/14 13:52:29;;;;;;;;;;;25.40;66.80;;;;;;5027917;28;19917;-55
2023/08/14 13:54:54;;;;;;;;;;;25.30;67.20;;;;;;5027973;28;19913;-55
2023/08/14 13:57:20;;;;;;;;;;;25.40;67.10;;;;;;5028537;28;19913;-55
2023/08/14 13:59:45;;;;;;;;;;;25.50;66.30;;;;;;5028264;28;19948;-55
2023/08/14 14:02:13;;;;;;;;;;;25.50;66.20;;;;;;5031371;28;19920;-56
2023/08/14 14:04:39;;;;;;;;;;;25.50;65.40;;;;;;5027011;28;19962;-56
2023/08/14 14:07:05;;;;;;;;;;;25.60;65.20;;;;;;5030316;28;19949;-55
2023/08/14 14:09:30;;;;;;;;;;;25.60;66.00;;;;;;5031774;28;19931;-56